sensor_id;sensor_type;location;lat;lon;timestamp;P1;durP1;ratioP1;P2;durP2;ratioP2
59970;SDS011;45825;45.434;9.116;2024-02-23T00:00:28;31.08;;;21.63;;
59970;SDS011;45825;45.434;9.116;2024-02-23T00:02:54;26.52;;;21.17;;
59970;SDS011;45825;45.434;9.116;2024-02-23T00:05:21;27.30;;;21.42;;
59970;SDS011;45825;45.434;9.116;2024-02-23T00:07:46;30.17;;;21.77;;
59970;SDS011;45825;45.434;9.116;2024-02-23T00:10:12;29.13;;;21.15;;
59970;SDS011;45825;45.434;9.116;2024-02-23T00:12:37;30.30;;;21.77;;
59970;SDS011;45825;45.434;9.116;2024-02-23T00:15:02;27.85;;;20.63;;
59970;SDS011;45825;45.434;9.116;2024-02-23T00:17:28;30.30;;;21.70;;
59970;SDS011;45825;45.434;9.116;2024-02-23T00:19:53;32.25;;;22.77;;
59970;SDS011;45825;45.434;9.116;2024-02-23T00:22:18;32.13;;;22.15;;
59970;SDS011;45825;45.434;9.116;2024-02-23T00:24:44;31.13;;;23.30;;
59970;SDS011;45825;45.434;9.116;2024-02-23T00:27:09;30.80;;;22.83;;
59970;SDS011;45825;45.434;9.116;2024-02-23T00:29:34;32.85;;;23.27;;
59970;SDS011;45825;45.434;9.116;2024-02-23T00:32:00;35.30;;;23.02;;
59970;SDS011;45825;45.434;9.116;2024-02-23T00:34:26;35.13;;;23.50;;
59970;SDS011;45825;45.434;9.116;2024-02-23T00:36:51;32.95;;;23.48;;
59970;SDS011;45825;45.434;9.116;2024-02-23T00:39:17;31.02;;;22.63;;
59970;SDS011;45825;45.434;9.116;2024-02-23T00:41:43;31.83;;;23.02;;
59970;SDS011;45825;45.434;9.116;2024-02-23T00:44:08;32.05;;;22.83;;
59970;SDS011;45825;45.434;9.116;2024-02-23T00:46:33;33.92;;;24.02;;
59970;SDS011;45825;45.434;9.116;2024-02-23T00:48:59;30.38;;;21.90;;
59970;SDS011;45825;45.434;9.116;2024-02-23T00:51:24;30.90;;;22.15;;
59970;SDS011;45825;45.434;9.116;2024-02-23T00:53:50;34.53;;;23.48;;
59970;SDS011;45825;45.434;9.116;2024-02-23T00:56:15;31.95;;;22.23;;
59970;SDS011;45825;45.434;9.116;2024-02-23T00:58:40;29.83;;;20.67;;
59970;SDS011;45825;45.434;9.116;2024-02-23T01:01:06;26.17;;;18.88;;
59970;SDS011;45825;45.434;9.116;2024-02-23T01:03:31;29.17;;;19.77;;
59970;SDS011;45825;45.434;9.116;2024-02-23T01:05:57;25.90;;;19.45;;
59970;SDS011;45825;45.434;9.116;2024-02-23T01:08:23;24.45;;;17.75;;
59970;SDS011;45825;45.434;9.116;2024-02-23T01:10:48;25.05;;;17.50;;
59970;SDS011;45825;45.434;9.116;2024-02-23T01:13:13;25.02;;;17.05;;
59970;SDS011;45825;45.434;9.116;2024-02-23T01:15:39;22.13;;;16.13;;
59970;SDS011;45825;45.434;9.116;2024-02-23T01:18:04;23.67;;;16.42;;
59970;SDS011;45825;45.434;9.116;2024-02-23T01:20:32;22.25;;;15.85;;
59970;SDS011;45825;45.434;9.116;2024-02-23T01:22:58;21.10;;;15.13;;
59970;SDS011;45825;45.434;9.116;2024-02-23T01:25:23;21.90;;;14.85;;
59970;SDS011;45825;45.434;9.116;2024-02-23T01:27:48;21.55;;;14.70;;
59970;SDS011;45825;45.434;9.116;2024-02-23T01:30:14;19.05;;;14.38;;
59970;SDS011;45825;45.434;9.116;2024-02-23T01:32:39;19.13;;;13.40;;
59970;SDS011;45825;45.434;9.116;2024-02-23T01:35:05;17.40;;;13.15;;
59970;SDS011;45825;45.434;9.116;2024-02-23T01:37:31;16.45;;;12.55;;
59970;SDS011;45825;45.434;9.116;2024-02-23T01:39:57;16.58;;;11.88;;
59970;SDS011;45825;45.434;9.116;2024-02-23T01:42:23;18.45;;;12.23;;
59970;SDS011;45825;45.434;9.116;2024-02-23T01:44:48;18.83;;;12.35;;
59970;SDS011;45825;45.434;9.116;2024-02-23T01:47:14;16.88;;;11.82;;
59970;SDS011;45825;45.434;9.116;2024-02-23T01:49:40;16.58;;;12.30;;
59970;SDS011;45825;45.434;9.116;2024-02-23T01:52:06;17.73;;;11.98;;
59970;SDS011;45825;45.434;9.116;2024-02-23T01:54:31;16.30;;;11.70;;
59970;SDS011;45825;45.434;9.116;2024-02-23T01:56:57;15.63;;;11.32;;
59970;SDS011;45825;45.434;9.116;2024-02-23T01:59:24;14.90;;;11.20;;
59970;SDS011;45825;45.434;9.116;2024-02-23T02:01:50;16.52;;;11.73;;
59970;SDS011;45825;45.434;9.116;2024-02-23T02:04:16;15.32;;;11.52;;
59970;SDS011;45825;45.434;9.116;2024-02-23T02:06:41;15.68;;;11.50;;
59970;SDS011;45825;45.434;9.116;2024-02-23T02:09:07;17.13;;;11.32;;
59970;SDS011;45825;45.434;9.116;2024-02-23T02:11:32;16.25;;;11.68;;
59970;SDS011;45825;45.434;9.116;2024-02-23T02:13:58;16.40;;;11.45;;
59970;SDS011;45825;45.434;9.116;2024-02-23T02:16:23;15.80;;;11.02;;
59970;SDS011;45825;45.434;9.116;2024-02-23T02:18:48;14.68;;;10.85;;
59970;SDS011;45825;45.434;9.116;2024-02-23T02:21:14;15.18;;;10.75;;
59970;SDS011;45825;45.434;9.116;2024-02-23T02:23:39;14.43;;;10.95;;
59970;SDS011;45825;45.434;9.116;2024-02-23T02:26:05;13.50;;;9.25;;
59970;SDS011;45825;45.434;9.116;2024-02-23T02:28:30;11.27;;;7.97;;
59970;SDS011;45825;45.434;9.116;2024-02-23T02:30:56;11.98;;;7.70;;
59970;SDS011;45825;45.434;9.116;2024-02-23T02:33:21;11.15;;;7.80;;
59970;SDS011;45825;45.434;9.116;2024-02-23T02:35:47;12.85;;;8.68;;
59970;SDS011;45825;45.434;9.116;2024-02-23T02:38:14;10.15;;;7.63;;
59970;SDS011;45825;45.434;9.116;2024-02-23T02:40:40;9.90;;;6.88;;
59970;SDS011;45825;45.434;9.116;2024-02-23T02:43:05;10.57;;;6.63;;
59970;SDS011;45825;45.434;9.116;2024-02-23T02:45:31;9.10;;;6.35;;
59970;SDS011;45825;45.434;9.116;2024-02-23T02:47:57;10.07;;;6.63;;
59970;SDS011;45825;45.434;9.116;2024-02-23T02:50:25;9.50;;;6.63;;
59970;SDS011;45825;45.434;9.116;2024-02-23T02:52:50;12.43;;;6.97;;
59970;SDS011;45825;45.434;9.116;2024-02-23T02:55:16;11.23;;;6.90;;
59970;SDS011;45825;45.434;9.116;2024-02-23T02:57:43;10.20;;;6.28;;
59970;SDS011;45825;45.434;9.116;2024-02-23T03:00:09;8.93;;;5.50;;
59970;SDS011;45825;45.434;9.116;2024-02-23T03:02:36;9.63;;;5.30;;
59970;SDS011;45825;45.434;9.116;2024-02-23T03:05:01;8.32;;;4.60;;
59970;SDS011;45825;45.434;9.116;2024-02-23T03:07:26;9.02;;;4.82;;
59970;SDS011;45825;45.434;9.116;2024-02-23T03:09:51;8.35;;;4.63;;
59970;SDS011;45825;45.434;9.116;2024-02-23T03:12:17;7.93;;;4.88;;
59970;SDS011;45825;45.434;9.116;2024-02-23T03:14:42;6.65;;;3.80;;
59970;SDS011;45825;45.434;9.116;2024-02-23T03:17:08;6.85;;;4.10;;
59970;SDS011;45825;45.434;9.116;2024-02-23T03:19:37;8.75;;;4.90;;
59970;SDS011;45825;45.434;9.116;2024-02-23T03:22:02;8.70;;;4.88;;
59970;SDS011;45825;45.434;9.116;2024-02-23T03:24:28;8.85;;;4.38;;
59970;SDS011;45825;45.434;9.116;2024-02-23T03:26:53;6.45;;;4.18;;
59970;SDS011;45825;45.434;9.116;2024-02-23T03:29:19;8.48;;;4.32;;
59970;SDS011;45825;45.434;9.116;2024-02-23T03:31:45;8.20;;;5.00;;
59970;SDS011;45825;45.434;9.116;2024-02-23T03:34:10;7.32;;;4.07;;
59970;SDS011;45825;45.434;9.116;2024-02-23T03:36:38;7.78;;;4.22;;
59970;SDS011;45825;45.434;9.116;2024-02-23T03:39:03;9.15;;;5.25;;
59970;SDS011;45825;45.434;9.116;2024-02-23T03:41:28;8.05;;;5.05;;
59970;SDS011;45825;45.434;9.116;2024-02-23T03:43:54;9.95;;;5.90;;
59970;SDS011;45825;45.434;9.116;2024-02-23T03:46:19;9.13;;;5.45;;
59970;SDS011;45825;45.434;9.116;2024-02-23T03:48:45;9.82;;;6.82;;
59970;SDS011;45825;45.434;9.116;2024-02-23T03:51:10;15.50;;;12.65;;
59970;SDS011;45825;45.434;9.116;2024-02-23T03:53:36;22.90;;;20.48;;
59970;SDS011;45825;45.434;9.116;2024-02-23T03:56:01;23.05;;;20.00;;
59970;SDS011;45825;45.434;9.116;2024-02-23T03:58:27;13.65;;;11.20;;
59970;SDS011;45825;45.434;9.116;2024-02-23T04:00:53;9.82;;;7.22;;
59970;SDS011;45825;45.434;9.116;2024-02-23T04:03:18;10.93;;;7.22;;
59970;SDS011;45825;45.434;9.116;2024-02-23T04:05:43;9.40;;;6.50;;
59970;SDS011;45825;45.434;9.116;2024-02-23T04:08:09;10.32;;;6.45;;
59970;SDS011;45825;45.434;9.116;2024-02-23T04:10:34;8.73;;;6.07;;
59970;SDS011;45825;45.434;9.116;2024-02-23T04:13:00;9.80;;;6.40;;
59970;SDS011;45825;45.434;9.116;2024-02-23T04:15:26;9.50;;;6.03;;
59970;SDS011;45825;45.434;9.116;2024-02-23T04:17:51;9.00;;;6.20;;
59970;SDS011;45825;45.434;9.116;2024-02-23T04:20:17;10.23;;;6.07;;
59970;SDS011;45825;45.434;9.116;2024-02-23T04:22:42;9.15;;;6.00;;
59970;SDS011;45825;45.434;9.116;2024-02-23T04:25:08;10.18;;;7.00;;
59970;SDS011;45825;45.434;9.116;2024-02-23T04:27:33;10.82;;;6.68;;
59970;SDS011;45825;45.434;9.116;2024-02-23T04:29:58;10.98;;;6.53;;
59970;SDS011;45825;45.434;9.116;2024-02-23T04:32:23;10.27;;;6.68;;
59970;SDS011;45825;45.434;9.116;2024-02-23T04:34:49;11.85;;;7.78;;
59970;SDS011;45825;45.434;9.116;2024-02-23T04:37:14;11.73;;;8.20;;
59970;SDS011;45825;45.434;9.116;2024-02-23T04:39:39;12.05;;;8.98;;
59970;SDS011;45825;45.434;9.116;2024-02-23T04:42:06;12.35;;;8.75;;
59970;SDS011;45825;45.434;9.116;2024-02-23T04:44:33;22.65;;;18.45;;
59970;SDS011;45825;45.434;9.116;2024-02-23T04:46:59;16.05;;;11.90;;
59970;SDS011;45825;45.434;9.116;2024-02-23T04:49:24;14.07;;;10.60;;
59970;SDS011;45825;45.434;9.116;2024-02-23T04:51:49;11.23;;;8.30;;
59970;SDS011;45825;45.434;9.116;2024-02-23T04:54:14;10.55;;;7.78;;
59970;SDS011;45825;45.434;9.116;2024-02-23T04:56:40;11.43;;;7.60;;
59970;SDS011;45825;45.434;9.116;2024-02-23T04:59:05;9.95;;;7.30;;
59970;SDS011;45825;45.434;9.116;2024-02-23T05:01:34;9.98;;;7.50;;
59970;SDS011;45825;45.434;9.116;2024-02-23T05:04:00;11.07;;;8.27;;
59970;SDS011;45825;45.434;9.116;2024-02-23T05:06:26;11.18;;;8.10;;
59970;SDS011;45825;45.434;9.116;2024-02-23T05:08:51;12.20;;;8.52;;
59970;SDS011;45825;45.434;9.116;2024-02-23T05:11:16;12.43;;;8.00;;
59970;SDS011;45825;45.434;9.116;2024-02-23T05:13:42;11.10;;;7.72;;
59970;SDS011;45825;45.434;9.116;2024-02-23T05:16:07;11.55;;;8.32;;
59970;SDS011;45825;45.434;9.116;2024-02-23T05:18:32;11.15;;;7.63;;
59970;SDS011;45825;45.434;9.116;2024-02-23T05:20:58;12.93;;;8.05;;
59970;SDS011;45825;45.434;9.116;2024-02-23T05:23:23;12.80;;;9.23;;
59970;SDS011;45825;45.434;9.116;2024-02-23T05:25:48;14.40;;;10.13;;
59970;SDS011;45825;45.434;9.116;2024-02-23T05:28:14;14.13;;;11.05;;
59970;SDS011;45825;45.434;9.116;2024-02-23T05:30:40;15.35;;;12.48;;
59970;SDS011;45825;45.434;9.116;2024-02-23T05:33:05;14.20;;;12.07;;
59970;SDS011;45825;45.434;9.116;2024-02-23T05:35:31;16.80;;;12.43;;
59970;SDS011;45825;45.434;9.116;2024-02-23T05:37:56;14.65;;;11.50;;
59970;SDS011;45825;45.434;9.116;2024-02-23T05:40:22;15.40;;;11.52;;
59970;SDS011;45825;45.434;9.116;2024-02-23T05:42:47;13.65;;;10.00;;
59970;SDS011;45825;45.434;9.116;2024-02-23T05:45:12;12.05;;;9.85;;
59970;SDS011;45825;45.434;9.116;2024-02-23T05:47:38;13.32;;;10.20;;
59970;SDS011;45825;45.434;9.116;2024-02-23T05:50:09;13.25;;;9.80;;
59970;SDS011;45825;45.434;9.116;2024-02-23T05:55:01;12.68;;;9.40;;
59970;SDS011;45825;45.434;9.116;2024-02-23T05:57:27;13.65;;;10.30;;
59970;SDS011;45825;45.434;9.116;2024-02-23T05:59:53;14.85;;;10.60;;
59970;SDS011;45825;45.434;9.116;2024-02-23T06:02:18;14.05;;;10.68;;
59970;SDS011;45825;45.434;9.116;2024-02-23T06:04:44;15.73;;;11.63;;
59970;SDS011;45825;45.434;9.116;2024-02-23T06:07:10;14.02;;;11.18;;
59970;SDS011;45825;45.434;9.116;2024-02-23T06:09:35;16.48;;;11.77;;
59970;SDS011;45825;45.434;9.116;2024-02-23T06:12:01;16.15;;;11.95;;
59970;SDS011;45825;45.434;9.116;2024-02-23T06:14:26;14.05;;;11.32;;
59970;SDS011;45825;45.434;9.116;2024-02-23T06:16:51;15.80;;;12.82;;
59970;SDS011;45825;45.434;9.116;2024-02-23T06:19:17;18.80;;;14.68;;
59970;SDS011;45825;45.434;9.116;2024-02-23T06:21:42;14.15;;;11.15;;
59970;SDS011;45825;45.434;9.116;2024-02-23T06:24:08;14.02;;;11.40;;
59970;SDS011;45825;45.434;9.116;2024-02-23T06:26:34;13.32;;;10.10;;
59970;SDS011;45825;45.434;9.116;2024-02-23T06:29:00;12.02;;;9.32;;
59970;SDS011;45825;45.434;9.116;2024-02-23T06:31:25;12.73;;;9.70;;
59970;SDS011;45825;45.434;9.116;2024-02-23T06:33:51;11.77;;;9.50;;
59970;SDS011;45825;45.434;9.116;2024-02-23T06:36:16;12.38;;;9.65;;
59970;SDS011;45825;45.434;9.116;2024-02-23T06:38:43;11.52;;;9.02;;
59970;SDS011;45825;45.434;9.116;2024-02-23T06:41:08;12.15;;;9.52;;
59970;SDS011;45825;45.434;9.116;2024-02-23T06:43:35;12.93;;;10.00;;
59970;SDS011;45825;45.434;9.116;2024-02-23T06:46:06;12.23;;;8.77;;
59970;SDS011;45825;45.434;9.116;2024-02-23T06:48:32;13.18;;;9.98;;
59970;SDS011;45825;45.434;9.116;2024-02-23T06:50:57;11.20;;;9.00;;
59970;SDS011;45825;45.434;9.116;2024-02-23T06:53:23;11.27;;;9.32;;
59970;SDS011;45825;45.434;9.116;2024-02-23T06:55:48;12.55;;;9.65;;
59970;SDS011;45825;45.434;9.116;2024-02-23T06:58:13;11.75;;;9.35;;
59970;SDS011;45825;45.434;9.116;2024-02-23T07:00:39;13.07;;;9.40;;
59970;SDS011;45825;45.434;9.116;2024-02-23T07:03:05;11.18;;;9.85;;
59970;SDS011;45825;45.434;9.116;2024-02-23T07:05:30;13.05;;;9.93;;
59970;SDS011;45825;45.434;9.116;2024-02-23T07:07:55;11.80;;;10.27;;
59970;SDS011;45825;45.434;9.116;2024-02-23T07:10:21;13.27;;;10.55;;
59970;SDS011;45825;45.434;9.116;2024-02-23T07:12:47;13.10;;;10.75;;
59970;SDS011;45825;45.434;9.116;2024-02-23T07:15:13;14.45;;;10.82;;
59970;SDS011;45825;45.434;9.116;2024-02-23T07:17:39;12.90;;;10.48;;
59970;SDS011;45825;45.434;9.116;2024-02-23T07:20:04;12.63;;;10.20;;
59970;SDS011;45825;45.434;9.116;2024-02-23T07:22:32;12.77;;;11.07;;
59970;SDS011;45825;45.434;9.116;2024-02-23T07:24:58;15.75;;;11.70;;
59970;SDS011;45825;45.434;9.116;2024-02-23T07:27:23;14.02;;;11.93;;
59970;SDS011;45825;45.434;9.116;2024-02-23T07:29:48;13.98;;;12.07;;
59970;SDS011;45825;45.434;9.116;2024-02-23T07:32:14;14.48;;;12.27;;
59970;SDS011;45825;45.434;9.116;2024-02-23T07:34:39;13.40;;;11.55;;
59970;SDS011;45825;45.434;9.116;2024-02-23T07:37:05;16.27;;;13.13;;
59970;SDS011;45825;45.434;9.116;2024-02-23T07:39:30;16.70;;;13.30;;
59970;SDS011;45825;45.434;9.116;2024-02-23T07:41:55;15.98;;;13.57;;
59970;SDS011;45825;45.434;9.116;2024-02-23T07:44:21;15.50;;;13.27;;
59970;SDS011;45825;45.434;9.116;2024-02-23T07:46:46;17.95;;;14.57;;
59970;SDS011;45825;45.434;9.116;2024-02-23T07:49:11;15.93;;;13.38;;
59970;SDS011;45825;45.434;9.116;2024-02-23T07:51:37;13.63;;;11.75;;
59970;SDS011;45825;45.434;9.116;2024-02-23T07:54:02;13.90;;;11.50;;
59970;SDS011;45825;45.434;9.116;2024-02-23T07:56:27;14.77;;;11.73;;
59970;SDS011;45825;45.434;9.116;2024-02-23T07:58:53;13.52;;;11.68;;
59970;SDS011;45825;45.434;9.116;2024-02-23T08:01:19;14.18;;;12.68;;
59970;SDS011;45825;45.434;9.116;2024-02-23T08:03:44;16.63;;;13.10;;
59970;SDS011;45825;45.434;9.116;2024-02-23T08:06:09;14.82;;;12.35;;
59970;SDS011;45825;45.434;9.116;2024-02-23T08:08:35;15.38;;;12.45;;
59970;SDS011;45825;45.434;9.116;2024-02-23T08:11:03;14.75;;;12.25;;
59970;SDS011;45825;45.434;9.116;2024-02-23T08:13:29;10.38;;;8.27;;
59970;SDS011;45825;45.434;9.116;2024-02-23T08:15:55;8.73;;;6.07;;
59970;SDS011;45825;45.434;9.116;2024-02-23T08:18:20;8.48;;;5.93;;
59970;SDS011;45825;45.434;9.116;2024-02-23T08:20:47;8.93;;;6.43;;
59970;SDS011;45825;45.434;9.116;2024-02-23T08:23:13;9.70;;;6.57;;
59970;SDS011;45825;45.434;9.116;2024-02-23T08:25:38;9.05;;;6.55;;
59970;SDS011;45825;45.434;9.116;2024-02-23T08:28:04;8.10;;;6.10;;
59970;SDS011;45825;45.434;9.116;2024-02-23T08:30:29;8.15;;;5.60;;
59970;SDS011;45825;45.434;9.116;2024-02-23T08:32:54;7.38;;;5.38;;
59970;SDS011;45825;45.434;9.116;2024-02-23T08:35:20;9.57;;;5.68;;
59970;SDS011;45825;45.434;9.116;2024-02-23T08:37:45;7.90;;;5.35;;
59970;SDS011;45825;45.434;9.116;2024-02-23T08:40:10;7.68;;;5.20;;
59970;SDS011;45825;45.434;9.116;2024-02-23T08:42:36;9.38;;;5.53;;
59970;SDS011;45825;45.434;9.116;2024-02-23T08:45:02;7.28;;;5.15;;
59970;SDS011;45825;45.434;9.116;2024-02-23T08:47:27;8.05;;;5.47;;
59970;SDS011;45825;45.434;9.116;2024-02-23T08:49:57;8.20;;;5.00;;
59970;SDS011;45825;45.434;9.116;2024-02-23T08:52:22;8.68;;;4.90;;
59970;SDS011;45825;45.434;9.116;2024-02-23T08:54:48;6.63;;;3.90;;
59970;SDS011;45825;45.434;9.116;2024-02-23T08:57:13;7.63;;;3.90;;
59970;SDS011;45825;45.434;9.116;2024-02-23T08:59:42;7.40;;;4.10;;
59970;SDS011;45825;45.434;9.116;2024-02-23T09:02:08;7.78;;;3.97;;
59970;SDS011;45825;45.434;9.116;2024-02-23T09:04:34;5.93;;;3.72;;
59970;SDS011;45825;45.434;9.116;2024-02-23T09:07:00;5.85;;;3.90;;
59970;SDS011;45825;45.434;9.116;2024-02-23T09:09:26;6.82;;;3.75;;
59970;SDS011;45825;45.434;9.116;2024-02-23T09:11:51;5.95;;;3.22;;
59970;SDS011;45825;45.434;9.116;2024-02-23T09:14:17;5.88;;;3.10;;
59970;SDS011;45825;45.434;9.116;2024-02-23T09:16:42;6.93;;;3.40;;
59970;SDS011;45825;45.434;9.116;2024-02-23T09:19:07;7.05;;;3.33;;
59970;SDS011;45825;45.434;9.116;2024-02-23T09:21:33;5.47;;;3.20;;
59970;SDS011;45825;45.434;9.116;2024-02-23T09:23:58;5.63;;;3.35;;
59970;SDS011;45825;45.434;9.116;2024-02-23T09:26:24;7.63;;;2.83;;
59970;SDS011;45825;45.434;9.116;2024-02-23T09:28:49;4.80;;;2.75;;
59970;SDS011;45825;45.434;9.116;2024-02-23T09:31:14;6.28;;;3.22;;
59970;SDS011;45825;45.434;9.116;2024-02-23T09:33:40;6.65;;;3.42;;
59970;SDS011;45825;45.434;9.116;2024-02-23T09:36:06;4.47;;;2.70;;
59970;SDS011;45825;45.434;9.116;2024-02-23T09:38:32;5.85;;;3.33;;
59970;SDS011;45825;45.434;9.116;2024-02-23T09:40:57;7.28;;;3.10;;
59970;SDS011;45825;45.434;9.116;2024-02-23T09:43:24;6.43;;;3.35;;
59970;SDS011;45825;45.434;9.116;2024-02-23T09:45:54;5.68;;;2.80;;
59970;SDS011;45825;45.434;9.116;2024-02-23T09:48:22;5.93;;;3.03;;
59970;SDS011;45825;45.434;9.116;2024-02-23T09:50:48;5.70;;;3.10;;
59970;SDS011;45825;45.434;9.116;2024-02-23T09:53:16;5.63;;;2.95;;
59970;SDS011;45825;45.434;9.116;2024-02-23T09:55:44;8.50;;;3.80;;
59970;SDS011;45825;45.434;9.116;2024-02-23T09:58:10;6.85;;;3.78;;
59970;SDS011;45825;45.434;9.116;2024-02-23T10:00:38;6.28;;;3.58;;
59970;SDS011;45825;45.434;9.116;2024-02-23T10:03:04;8.20;;;3.88;;
59970;SDS011;45825;45.434;9.116;2024-02-23T10:05:31;6.07;;;3.45;;
59970;SDS011;45825;45.434;9.116;2024-02-23T10:07:59;6.75;;;4.85;;
59970;SDS011;45825;45.434;9.116;2024-02-23T10:10:32;5.20;;;3.35;;
59970;SDS011;45825;45.434;9.116;2024-02-23T10:12:58;5.68;;;3.38;;
59970;SDS011;45825;45.434;9.116;2024-02-23T10:15:24;6.38;;;3.55;;
59970;SDS011;45825;45.434;9.116;2024-02-23T10:17:50;5.95;;;3.42;;
59970;SDS011;45825;45.434;9.116;2024-02-23T10:20:15;5.88;;;3.33;;
59970;SDS011;45825;45.434;9.116;2024-02-23T10:22:42;5.18;;;3.40;;
59970;SDS011;45825;45.434;9.116;2024-02-23T10:25:07;6.40;;;3.45;;
59970;SDS011;45825;45.434;9.116;2024-02-23T10:27:33;6.97;;;3.70;;
59970;SDS011;45825;45.434;9.116;2024-02-23T10:29:58;9.95;;;8.73;;
59970;SDS011;45825;45.434;9.116;2024-02-23T10:32:24;9.60;;;7.07;;
59970;SDS011;45825;45.434;9.116;2024-02-23T10:34:52;7.38;;;4.30;;
59970;SDS011;45825;45.434;9.116;2024-02-23T10:37:21;6.70;;;4.13;;
59970;SDS011;45825;45.434;9.116;2024-02-23T10:39:48;5.80;;;3.50;;
59970;SDS011;45825;45.434;9.116;2024-02-23T10:42:18;5.15;;;3.40;;
59970;SDS011;45825;45.434;9.116;2024-02-23T10:44:49;7.60;;;3.55;;
59970;SDS011;45825;45.434;9.116;2024-02-23T10:47:16;6.05;;;3.53;;
59970;SDS011;45825;45.434;9.116;2024-02-23T10:49:41;6.50;;;3.90;;
59970;SDS011;45825;45.434;9.116;2024-02-23T10:52:10;7.50;;;4.50;;
59970;SDS011;45825;45.434;9.116;2024-02-23T10:54:38;7.38;;;5.25;;
59970;SDS011;45825;45.434;9.116;2024-02-23T10:57:05;7.60;;;4.88;;
59970;SDS011;45825;45.434;9.116;2024-02-23T10:59:31;6.88;;;4.60;;
59970;SDS011;45825;45.434;9.116;2024-02-23T11:01:57;6.95;;;3.90;;
59970;SDS011;45825;45.434;9.116;2024-02-23T11:04:24;7.07;;;4.68;;
59970;SDS011;45825;45.434;9.116;2024-02-23T11:06:52;7.28;;;5.00;;
59970;SDS011;45825;45.434;9.116;2024-02-23T11:09:21;7.65;;;5.28;;
59970;SDS011;45825;45.434;9.116;2024-02-23T11:11:55;9.98;;;5.10;;
59970;SDS011;45825;45.434;9.116;2024-02-23T11:14:31;10.82;;;4.93;;
59970;SDS011;45825;45.434;9.116;2024-02-23T11:17:00;7.95;;;4.90;;
59970;SDS011;45825;45.434;9.116;2024-02-23T11:19:37;7.95;;;4.93;;
59970;SDS011;45825;45.434;9.116;2024-02-23T11:22:04;7.72;;;5.20;;
59970;SDS011;45825;45.434;9.116;2024-02-23T11:24:31;8.60;;;5.50;;
59970;SDS011;45825;45.434;9.116;2024-02-23T11:26:57;8.32;;;6.25;;
59970;SDS011;45825;45.434;9.116;2024-02-23T11:29:33;8.30;;;6.10;;
59970;SDS011;45825;45.434;9.116;2024-02-23T11:31:59;8.57;;;5.75;;
59970;SDS011;45825;45.434;9.116;2024-02-23T11:34:27;9.82;;;5.97;;
59970;SDS011;45825;45.434;9.116;2024-02-23T11:36:53;9.05;;;6.47;;
59970;SDS011;45825;45.434;9.116;2024-02-23T11:39:18;11.45;;;6.90;;
59970;SDS011;45825;45.434;9.116;2024-02-23T11:41:45;9.00;;;6.80;;
59970;SDS011;45825;45.434;9.116;2024-02-23T11:44:13;8.95;;;6.80;;
59970;SDS011;45825;45.434;9.116;2024-02-23T11:46:39;10.48;;;8.02;;
59970;SDS011;45825;45.434;9.116;2024-02-23T11:49:07;14.38;;;12.32;;
59970;SDS011;45825;45.434;9.116;2024-02-23T11:51:32;16.40;;;13.73;;
59970;SDS011;45825;45.434;9.116;2024-02-23T11:53:58;15.13;;;13.25;;
59970;SDS011;45825;45.434;9.116;2024-02-23T11:56:25;16.13;;;13.77;;
59970;SDS011;45825;45.434;9.116;2024-02-23T11:58:51;20.50;;;17.35;;
59970;SDS011;45825;45.434;9.116;2024-02-23T12:01:16;22.30;;;18.30;;
59970;SDS011;45825;45.434;9.116;2024-02-23T12:03:41;19.77;;;16.70;;
59970;SDS011;45825;45.434;9.116;2024-02-23T12:06:09;18.13;;;15.80;;
59970;SDS011;45825;45.434;9.116;2024-02-23T12:08:35;19.52;;;16.63;;
59970;SDS011;45825;45.434;9.116;2024-02-23T12:11:05;19.45;;;16.25;;
59970;SDS011;45825;45.434;9.116;2024-02-23T12:13:33;13.48;;;10.80;;
59970;SDS011;45825;45.434;9.116;2024-02-23T12:15:59;11.93;;;9.85;;
59970;SDS011;45825;45.434;9.116;2024-02-23T12:18:25;11.82;;;9.25;;
59970;SDS011;45825;45.434;9.116;2024-02-23T12:23:26;13.43;;;10.35;;
59970;SDS011;45825;45.434;9.116;2024-02-23T12:25:52;15.60;;;10.20;;
59970;SDS011;45825;45.434;9.116;2024-02-23T12:28:22;12.77;;;10.02;;
59970;SDS011;45825;45.434;9.116;2024-02-23T12:30:57;11.02;;;8.63;;
59970;SDS011;45825;45.434;9.116;2024-02-23T12:33:23;12.50;;;8.70;;
59970;SDS011;45825;45.434;9.116;2024-02-23T12:35:53;12.07;;;8.95;;
59970;SDS011;45825;45.434;9.116;2024-02-23T12:38:19;14.27;;;11.35;;
59970;SDS011;45825;45.434;9.116;2024-02-23T12:40:44;15.95;;;13.25;;
59970;SDS011;45825;45.434;9.116;2024-02-23T12:43:09;12.15;;;8.73;;
59970;SDS011;45825;45.434;9.116;2024-02-23T12:45:35;10.57;;;7.95;;
59970;SDS011;45825;45.434;9.116;2024-02-23T12:48:00;10.45;;;6.88;;
59970;SDS011;45825;45.434;9.116;2024-02-23T12:50:25;11.27;;;8.30;;
59970;SDS011;45825;45.434;9.116;2024-02-23T12:52:50;11.77;;;8.55;;
59970;SDS011;45825;45.434;9.116;2024-02-23T12:55:17;13.32;;;8.75;;
59970;SDS011;45825;45.434;9.116;2024-02-23T12:57:42;10.82;;;7.38;;
59970;SDS011;45825;45.434;9.116;2024-02-23T13:00:07;11.38;;;7.65;;
59970;SDS011;45825;45.434;9.116;2024-02-23T13:02:33;13.13;;;8.25;;
59970;SDS011;45825;45.434;9.116;2024-02-23T13:04:59;11.93;;;8.02;;
59970;SDS011;45825;45.434;9.116;2024-02-23T13:07:24;10.55;;;7.55;;
59970;SDS011;45825;45.434;9.116;2024-02-23T13:09:49;10.80;;;7.97;;
59970;SDS011;45825;45.434;9.116;2024-02-23T13:12:15;11.63;;;8.38;;
59970;SDS011;45825;45.434;9.116;2024-02-23T13:14:40;10.57;;;7.80;;
59970;SDS011;45825;45.434;9.116;2024-02-23T13:17:05;9.15;;;6.47;;
59970;SDS011;45825;45.434;9.116;2024-02-23T13:19:31;11.27;;;7.15;;
59970;SDS011;45825;45.434;9.116;2024-02-23T13:21:56;10.68;;;7.50;;
59970;SDS011;45825;45.434;9.116;2024-02-23T13:24:21;10.50;;;7.30;;
59970;SDS011;45825;45.434;9.116;2024-02-23T13:26:47;10.25;;;6.60;;
59970;SDS011;45825;45.434;9.116;2024-02-23T13:29:12;10.63;;;7.50;;
59970;SDS011;45825;45.434;9.116;2024-02-23T13:31:37;9.90;;;7.25;;
59970;SDS011;45825;45.434;9.116;2024-02-23T13:34:04;11.35;;;7.90;;
59970;SDS011;45825;45.434;9.116;2024-02-23T13:36:30;10.65;;;7.75;;
59970;SDS011;45825;45.434;9.116;2024-02-23T13:38:55;11.27;;;8.13;;
59970;SDS011;45825;45.434;9.116;2024-02-23T13:41:20;11.20;;;7.90;;
59970;SDS011;45825;45.434;9.116;2024-02-23T13:43:46;10.77;;;8.50;;
59970;SDS011;45825;45.434;9.116;2024-02-23T13:46:11;11.45;;;8.80;;
59970;SDS011;45825;45.434;9.116;2024-02-23T13:48:36;13.95;;;9.48;;
59970;SDS011;45825;45.434;9.116;2024-02-23T13:51:02;11.40;;;8.95;;
59970;SDS011;45825;45.434;9.116;2024-02-23T13:53:29;12.60;;;9.20;;
59970;SDS011;45825;45.434;9.116;2024-02-23T13:55:55;13.23;;;9.60;;
59970;SDS011;45825;45.434;9.116;2024-02-23T13:58:26;13.35;;;8.98;;
59970;SDS011;45825;45.434;9.116;2024-02-23T14:00:53;13.00;;;9.82;;
59970;SDS011;45825;45.434;9.116;2024-02-23T14:03:18;9.63;;;6.82;;
59970;SDS011;45825;45.434;9.116;2024-02-23T14:05:44;9.80;;;6.63;;
59970;SDS011;45825;45.434;9.116;2024-02-23T14:08:11;10.35;;;6.88;;
59970;SDS011;45825;45.434;9.116;2024-02-23T14:10:36;11.18;;;8.35;;
59970;SDS011;45825;45.434;9.116;2024-02-23T14:13:03;12.05;;;9.15;;
59970;SDS011;45825;45.434;9.116;2024-02-23T14:15:28;11.23;;;8.30;;
59970;SDS011;45825;45.434;9.116;2024-02-23T14:17:54;15.82;;;10.43;;
59970;SDS011;45825;45.434;9.116;2024-02-23T14:20:19;13.02;;;10.00;;
59970;SDS011;45825;45.434;9.116;2024-02-23T14:22:44;10.98;;;7.93;;
59970;SDS011;45825;45.434;9.116;2024-02-23T14:25:10;10.68;;;7.88;;
59970;SDS011;45825;45.434;9.116;2024-02-23T14:27:35;12.30;;;8.68;;
59970;SDS011;45825;45.434;9.116;2024-02-23T14:30:00;14.48;;;11.43;;